createdAt,value
2022-07-25T00:02:21.031Z,24.00
2022-07-25T00:04:49.355Z,23.90
2022-07-25T00:07:17.474Z,23.90
2022-07-25T00:09:45.372Z,23.90
2022-07-25T00:12:14.135Z,23.90
2022-07-25T00:14:43.452Z,23.90
2022-07-25T00:17:11.415Z,23.90
2022-07-25T00:19:39.405Z,23.90
2022-07-25T00:22:07.655Z,23.80
2022-07-25T00:24:35.864Z,23.80
2022-07-25T00:27:03.839Z,23.70
2022-07-25T00:29:31.843Z,23.70
2022-07-25T00:32:01.197Z,23.70
2022-07-25T00:34:29.208Z,23.70
2022-07-25T00:36:57.182Z,23.60
2022-07-25T00:39:25.084Z,23.60
2022-07-25T00:41:53.034Z,23.60
2022-07-25T00:44:26.161Z,23.60
2022-07-25T00:46:55.447Z,23.60
2022-07-25T00:49:25.329Z,23.50
2022-07-25T00:51:54.562Z,23.50
2022-07-25T00:54:23.124Z,23.40
2022-07-25T00:56:51.539Z,23.40
2022-07-25T00:59:19.869Z,23.30
2022-07-25T01:01:49.029Z,23.30
2022-07-25T01:04:17.802Z,23.20
2022-07-25T01:09:16.541Z,23.10
2022-07-25T01:11:44.613Z,23.10
2022-07-25T01:14:12.691Z,23.10
2022-07-25T01:16:41.672Z,23.00
2022-07-25T01:19:10.193Z,23.00
2022-07-25T01:21:40.989Z,23.00
2022-07-25T01:24:09.961Z,22.90
2022-07-25T01:26:38.421Z,22.90
2022-07-25T01:29:06.522Z,22.90
2022-07-25T01:31:34.486Z,22.90
2022-07-25T01:34:02.617Z,22.80
2022-07-25T01:36:30.657Z,22.80
2022-07-25T01:39:00.201Z,22.80
2022-07-25T01:41:28.150Z,22.80
2022-07-25T01:43:56.119Z,22.80
2022-07-25T01:46:24.221Z,22.80
2022-07-25T01:48:52.245Z,22.70
2022-07-25T01:51:20.563Z,22.70
2022-07-25T01:53:48.648Z,22.70
2022-07-25T01:56:18.064Z,22.70
2022-07-25T01:58:49.757Z,22.70
2022-07-25T02:01:17.759Z,22.60
2022-07-25T02:03:49.557Z,22.60
2022-07-25T02:06:19.210Z,22.50
2022-07-25T02:08:47.145Z,22.50
2022-07-25T02:11:15.224Z,22.50
2022-07-25T02:13:44.932Z,22.50
2022-07-25T02:16:13.553Z,22.50
2022-07-25T02:18:41.518Z,22.50
2022-07-25T02:21:14.465Z,22.50
2022-07-25T02:23:43.262Z,22.40
2022-07-25T02:26:11.867Z,22.40
2022-07-25T02:28:39.802Z,22.40
2022-07-25T02:31:09.452Z,22.30
2022-07-25T02:33:37.964Z,22.30
2022-07-25T02:36:06.163Z,22.30
2022-07-25T02:38:34.148Z,22.20
2022-07-25T02:41:02.141Z,22.20
2022-07-25T02:43:30.056Z,22.20
2022-07-25T02:45:58.115Z,22.10
2022-07-25T02:48:27.655Z,22.10
2022-07-25T02:50:55.627Z,22.00
2022-07-25T02:53:46.730Z,22.00
2022-07-25T02:56:11.465Z,22.00
2022-07-25T02:58:42.014Z,22.00
2022-07-25T03:01:09.976Z,21.90
2022-07-25T03:03:39.438Z,21.90
2022-07-25T03:06:07.855Z,21.90
2022-07-25T03:08:35.782Z,21.90
2022-07-25T03:11:04.607Z,21.80
2022-07-25T03:13:33.803Z,21.80
2022-07-25T03:16:01.975Z,21.80
2022-07-25T03:18:30.038Z,21.70
2022-07-25T03:20:59.302Z,21.70
2022-07-25T03:23:28.416Z,21.70
2022-07-25T03:25:56.769Z,21.70
2022-07-25T03:28:25.304Z,21.80
2022-07-25T03:30:53.873Z,21.80
2022-07-25T03:33:21.866Z,21.80
2022-07-25T03:35:49.799Z,21.80
2022-07-25T03:38:19.239Z,21.80
2022-07-25T03:40:47.132Z,21.80
2022-07-25T03:43:15.231Z,21.80
2022-07-25T03:45:43.502Z,21.70
2022-07-25T03:48:12.092Z,21.70
2022-07-25T03:50:40.271Z,21.70
2022-07-25T03:53:08.188Z,21.70
2022-07-25T03:55:40.585Z,21.60
2022-07-25T03:58:08.542Z,21.60
2022-07-25T04:00:36.521Z,21.60
2022-07-25T04:03:05.087Z,21.60
2022-07-25T04:05:33.011Z,21.60
2022-07-25T04:08:01.032Z,21.50
2022-07-25T04:10:28.988Z,21.50
2022-07-25T04:12:58.282Z,21.50
2022-07-25T04:15:26.391Z,21.50
2022-07-25T04:17:54.260Z,21.50
2022-07-25T04:20:23.402Z,21.50
2022-07-25T04:22:53.038Z,21.50
2022-07-25T04:25:20.929Z,21.50
2022-07-25T04:27:48.810Z,21.50
2022-07-25T04:30:24.119Z,21.50
2022-07-25T04:32:53.031Z,21.50
2022-07-25T04:35:21.246Z,21.50
2022-07-25T04:37:49.472Z,21.60
2022-07-25T04:40:17.582Z,21.60
2022-07-25T04:42:45.522Z,21.60
2022-07-25T04:45:13.650Z,21.70
2022-07-25T04:47:42.878Z,21.70
2022-07-25T04:50:11.374Z,21.70
2022-07-25T04:52:39.322Z,21.70
2022-07-25T04:55:08.142Z,21.80
2022-07-25T04:57:36.700Z,21.80
2022-07-25T05:00:06.398Z,21.90
2022-07-25T05:02:34.467Z,21.90
2022-07-25T05:05:06.192Z,22.00
2022-07-25T05:07:34.100Z,22.00
2022-07-25T05:10:02.078Z,22.10
2022-07-25T05:12:30.078Z,22.10
2022-07-25T05:14:57.997Z,22.20
2022-07-25T05:17:25.868Z,22.30
2022-07-25T05:19:53.811Z,22.30
2022-07-25T05:22:28.235Z,22.40
2022-07-25T05:24:57.287Z,22.50
2022-07-25T05:27:25.286Z,22.60
2022-07-25T05:29:53.172Z,22.70
2022-07-25T05:32:21.078Z,22.70
2022-07-25T05:34:49.002Z,22.80
2022-07-25T05:37:17.397Z,22.90
2022-07-25T05:39:46.654Z,23.00
2022-07-25T05:42:14.573Z,23.10
2022-07-25T05:44:42.481Z,23.30
2022-07-25T05:47:10.970Z,23.40
2022-07-25T05:49:39.303Z,23.60
2022-07-25T05:52:12.592Z,23.70
2022-07-25T05:54:41.242Z,23.80
2022-07-25T05:57:10.524Z,24.00
2022-07-25T05:59:38.480Z,24.20
2022-07-25T06:02:06.520Z,24.40
2022-07-25T06:04:34.864Z,24.60
2022-07-25T06:07:02.974Z,24.80
2022-07-25T06:09:31.970Z,25.00
2022-07-25T06:12:01.412Z,25.20
2022-07-25T06:14:31.881Z,25.50
2022-07-25T06:16:59.964Z,25.70
2022-07-25T06:19:27.872Z,25.90
2022-07-25T06:21:55.737Z,26.10
2022-07-25T06:24:23.652Z,26.30
2022-07-25T06:26:51.517Z,26.50
2022-07-25T06:29:19.441Z,26.80
2022-07-25T06:31:49.144Z,27.00
2022-07-25T06:34:17.092Z,27.20
2022-07-25T06:36:44.995Z,27.40
2022-07-25T06:39:12.890Z,27.60
2022-07-25T06:41:40.803Z,27.90
2022-07-25T06:44:08.924Z,28.10
2022-07-25T06:46:37.223Z,28.30
2022-07-25T06:49:06.626Z,28.60
2022-07-25T06:51:35.694Z,29.20
2022-07-25T06:54:04.127Z,30.10
2022-07-25T06:56:32.971Z,31.40
2022-07-25T06:59:01.220Z,32.90
2022-07-25T07:01:29.260Z,34.60
2022-07-25T07:03:57.234Z,37.20
2022-07-25T07:08:54.725Z,40.50
2022-07-25T07:11:22.573Z,41.20
2022-07-25T07:13:50.590Z,42.70
2022-07-25T07:16:18.543Z,44.00
2022-07-25T07:21:21.350Z,46.60
2022-07-25T07:23:53.406Z,47.80
2022-07-25T07:26:22.408Z,48.80
2022-07-25T07:28:50.580Z,49.70
2022-07-25T07:31:18.890Z,50.50
2022-07-25T07:33:47.008Z,51.30
2022-07-25T07:36:15.033Z,51.90
2022-07-25T07:38:44.475Z,52.60
2022-07-25T07:41:13.954Z,53.20
2022-07-25T07:43:41.982Z,53.80
2022-07-25T07:46:09.906Z,54.20
2022-07-25T07:51:06.817Z,55.50
2022-07-25T07:53:52.699Z,55.90
2022-07-25T07:56:22.089Z,56.20
2022-07-25T07:58:50.483Z,56.60
2022-07-25T08:01:19.574Z,57.00
2022-07-25T08:03:47.612Z,57.50
2022-07-25T08:06:15.521Z,58.00
2022-07-25T08:08:43.426Z,58.10
2022-07-25T08:11:11.459Z,58.40
2022-07-25T08:13:40.884Z,58.60
2022-07-25T08:16:11.772Z,58.90
2022-07-25T08:18:39.768Z,59.20
2022-07-25T08:21:07.965Z,59.40
2022-07-25T08:26:07.484Z,59.70
2022-07-25T08:31:05.101Z,60.30
2022-07-25T08:33:33.206Z,60.50
2022-07-25T08:36:01.359Z,60.80
2022-07-25T08:38:30.053Z,61.00
2022-07-25T08:40:58.351Z,61.30
2022-07-25T08:43:26.251Z,61.30
2022-07-25T08:45:55.790Z,61.60
2022-07-25T08:48:27.650Z,61.60
2022-07-25T08:50:57.288Z,61.70
2022-07-25T08:53:34.660Z,61.80
2022-07-25T08:56:10.263Z,61.80
2022-07-25T08:58:41.287Z,62.00
2022-07-25T09:01:09.253Z,62.10
2022-07-25T09:03:38.859Z,62.10
2022-07-25T09:06:17.429Z,62.00
2022-07-25T09:08:53.110Z,61.90
2022-07-25T09:11:28.966Z,61.80
2022-07-25T09:14:06.889Z,61.60
2022-07-25T09:16:40.441Z,61.50
2022-07-25T09:19:12.630Z,61.30
2022-07-25T09:21:41.673Z,61.20
2022-07-25T09:24:11.362Z,61.00
2022-07-25T09:26:51.517Z,60.60
2022-07-25T09:29:21.997Z,60.30
2022-07-25T09:31:50.546Z,59.80
2022-07-25T09:34:31.933Z,59.20
2022-07-25T09:36:59.924Z,58.40
2022-07-25T09:39:35.953Z,57.60
2022-07-25T09:42:04.109Z,56.60
2022-07-25T09:44:32.192Z,55.70
2022-07-25T09:47:10.539Z,54.60
2022-07-25T09:49:42.741Z,53.50
2022-07-25T09:52:10.786Z,51.40
2022-07-25T09:54:39.199Z,51.30
2022-07-25T09:57:07.634Z,50.30
2022-07-25T09:59:35.998Z,49.40
2022-07-25T10:02:10.454Z,48.70
2022-07-25T10:04:47.270Z,47.90
2022-07-25T10:07:20.369Z,47.20
2022-07-25T10:09:50.098Z,46.50
2022-07-25T10:12:21.604Z,45.70
2022-07-25T10:15:06.871Z,45.40
2022-07-25T10:17:35.849Z,44.90
2022-07-25T10:20:07.086Z,44.40
2022-07-25T10:22:55.941Z,44.10
2022-07-25T10:25:24.434Z,43.80
2022-07-25T10:27:59.922Z,43.40
2022-07-25T10:30:29.782Z,43.10
2022-07-25T10:32:59.373Z,42.60
2022-07-25T10:35:29.647Z,42.60
2022-07-25T10:37:59.809Z,42.40
2022-07-25T10:40:29.817Z,42.30
2022-07-25T10:43:02.101Z,42.00
2022-07-25T10:45:40.102Z,41.90
2022-07-25T10:48:09.334Z,41.70
2022-07-25T10:50:56.806Z,41.50
2022-07-25T10:53:36.551Z,41.30
2022-07-25T10:56:07.771Z,41.10
2022-07-25T10:58:47.599Z,41.00
2022-07-25T11:01:16.474Z,40.80
2022-07-25T11:03:45.639Z,40.70
2022-07-25T11:06:16.142Z,40.60
2022-07-25T11:08:45.230Z,40.50
2022-07-25T11:11:14.081Z,40.30
2022-07-25T11:13:44.254Z,40.30
2022-07-25T11:16:12.370Z,40.20
2022-07-25T11:21:10.750Z,40.00
2022-07-25T11:23:41.794Z,40.00
2022-07-25T11:26:11.170Z,39.90
2022-07-25T11:28:45.435Z,39.90
2022-07-25T11:31:14.557Z,39.80
2022-07-25T11:33:45.437Z,39.80
2022-07-25T11:36:13.917Z,39.70
2022-07-25T11:38:43.726Z,39.60
2022-07-25T11:41:11.702Z,39.60
2022-07-25T11:43:39.591Z,39.50
2022-07-25T11:46:08.553Z,39.50
2022-07-25T11:48:39.056Z,39.40
2022-07-25T11:51:18.627Z,39.30
2022-07-25T11:53:50.284Z,39.30
2022-07-25T11:56:41.350Z,39.20
2022-07-25T11:59:08.891Z,39.10
2022-07-25T12:01:39.118Z,39.10
2022-07-25T12:04:15.279Z,39.00
2022-07-25T12:06:43.943Z,39.00
2022-07-25T12:09:18.527Z,39.00
2022-07-25T12:11:48.183Z,38.90
2022-07-25T12:14:16.482Z,38.80
2022-07-25T12:16:44.418Z,38.80
2022-07-25T12:19:20.441Z,38.70
2022-07-25T12:21:48.360Z,38.60
2022-07-25T12:24:17.692Z,38.70
2022-07-25T12:26:45.627Z,38.60
2022-07-25T12:29:13.535Z,38.50
2022-07-25T12:31:41.473Z,38.50
2022-07-25T12:34:09.411Z,38.40
2022-07-25T12:36:43.689Z,38.40
2022-07-25T12:39:11.689Z,38.40
2022-07-25T12:41:42.427Z,38.40
2022-07-25T12:44:10.773Z,38.30
2022-07-25T12:46:40.208Z,38.30
2022-07-25T12:49:08.533Z,38.30
2022-07-25T12:51:36.767Z,38.20
2022-07-25T12:54:05.262Z,38.20
2022-07-25T12:56:33.420Z,38.20
2022-07-25T12:59:03.113Z,38.10
2022-07-25T13:01:31.275Z,38.10
2022-07-25T13:03:59.189Z,38.10
2022-07-25T13:06:27.165Z,38.00
2022-07-25T13:08:55.162Z,38.00
2022-07-25T13:11:23.107Z,38.10
2022-07-25T13:13:51.061Z,38.00
2022-07-25T13:16:20.525Z,38.00
2022-07-25T13:18:48.529Z,38.00
2022-07-25T13:21:16.638Z,38.00
2022-07-25T13:23:44.580Z,38.00
2022-07-25T13:26:12.497Z,38.00
2022-07-25T13:28:40.477Z,37.90
2022-07-25T13:31:08.407Z,37.90
2022-07-25T13:33:37.671Z,37.90
2022-07-25T13:36:06.422Z,37.80
2022-07-25T13:38:36.011Z,37.80
2022-07-25T13:41:03.880Z,37.80
2022-07-25T13:43:31.789Z,37.80
2022-07-25T13:45:59.791Z,37.70
2022-07-25T13:48:30.005Z,37.70
2022-07-25T13:51:00.303Z,37.70
2022-07-25T13:53:30.547Z,37.70
2022-07-25T13:56:01.436Z,37.70
2022-07-25T13:58:29.850Z,37.60
2022-07-25T14:00:57.832Z,37.60
2022-07-25T14:03:25.842Z,37.60
2022-07-25T14:05:53.831Z,37.60
2022-07-25T14:08:23.229Z,37.60
2022-07-25T14:10:51.129Z,37.50
2022-07-25T14:13:19.091Z,37.60
2022-07-25T14:15:47.175Z,37.50
2022-07-25T14:18:15.601Z,37.50
2022-07-25T14:20:43.618Z,37.50
2022-07-25T14:23:11.562Z,37.50
2022-07-25T14:25:40.781Z,37.40
2022-07-25T14:28:08.746Z,37.40
2022-07-25T14:30:36.672Z,37.40
2022-07-25T14:33:04.760Z,37.40
2022-07-25T14:35:33.034Z,37.30
2022-07-25T14:38:01.181Z,37.30
2022-07-25T14:40:29.319Z,37.20
2022-07-25T14:42:58.569Z,37.20
2022-07-25T14:45:26.486Z,37.20
2022-07-25T14:47:54.530Z,37.20
2022-07-25T14:50:23.303Z,37.20
2022-07-25T14:52:51.173Z,37.10
2022-07-25T14:55:20.794Z,37.10
2022-07-25T14:57:48.762Z,37.10
2022-07-25T15:00:18.367Z,37.00
2022-07-25T15:02:46.317Z,37.00
2022-07-25T15:05:14.321Z,37.00
2022-07-25T15:07:42.283Z,37.00
2022-07-25T15:10:10.806Z,37.00
2022-07-25T15:12:38.737Z,37.00
2022-07-25T15:15:07.998Z,37.00
2022-07-25T15:17:37.293Z,37.00
2022-07-25T15:20:05.986Z,37.00
2022-07-25T15:22:33.948Z,37.00
2022-07-25T15:27:53.444Z,36.90
2022-07-25T15:30:24.780Z,37.10
2022-07-25T15:32:58.161Z,37.00
2022-07-25T15:35:26.059Z,37.00
2022-07-25T15:37:53.961Z,37.00
2022-07-25T15:40:22.062Z,36.90
2022-07-25T15:42:49.943Z,36.90
2022-07-25T15:45:36.243Z,36.90
2022-07-25T15:48:07.885Z,36.80
2022-07-25T15:50:36.132Z,36.80
2022-07-25T15:53:04.695Z,36.80
2022-07-25T15:55:32.828Z,36.70
2022-07-25T15:58:01.545Z,36.60
2022-07-25T16:00:29.998Z,36.70
2022-07-25T16:02:59.005Z,36.60
2022-07-25T16:05:29.516Z,36.60
2022-07-25T16:07:57.537Z,36.50
2022-07-25T16:10:25.439Z,36.70
2022-07-25T16:12:53.345Z,36.50
2022-07-25T16:15:21.414Z,36.50
2022-07-25T16:17:50.337Z,36.40
2022-07-25T16:20:18.227Z,36.40
2022-07-25T16:22:49.091Z,36.40
2022-07-25T16:25:17.074Z,36.30
2022-07-25T16:27:44.973Z,36.30
2022-07-25T16:30:14.456Z,36.30
2022-07-25T16:32:42.561Z,36.30
2022-07-25T16:35:10.772Z,36.30
2022-07-25T16:37:38.763Z,36.20
2022-07-25T16:40:09.683Z,36.20
2022-07-25T16:42:38.140Z,36.20
2022-07-25T16:45:06.846Z,36.20
2022-07-25T16:47:34.915Z,36.20
2022-07-25T16:50:02.791Z,36.20
2022-07-25T16:52:30.699Z,36.20
2022-07-25T16:54:59.385Z,36.20
2022-07-25T16:57:28.665Z,36.20
2022-07-25T16:59:56.601Z,36.20
2022-07-25T17:02:29.232Z,36.20
2022-07-25T17:04:58.083Z,36.10
2022-07-25T17:07:26.535Z,36.10
2022-07-25T17:09:54.872Z,36.10
2022-07-25T17:12:22.929Z,36.00
2022-07-25T17:14:52.188Z,36.00
2022-07-25T17:17:20.055Z,36.00
2022-07-25T17:22:16.770Z,35.90
2022-07-25T17:24:44.691Z,35.90
2022-07-25T17:27:12.866Z,35.80
2022-07-25T17:29:40.822Z,35.70
2022-07-25T17:32:10.218Z,35.70
2022-07-25T17:34:38.627Z,35.60
2022-07-25T17:37:06.956Z,35.50
2022-07-25T17:39:35.605Z,35.40
2022-07-25T17:44:35.563Z,35.30
2022-07-25T17:47:04.076Z,35.30
2022-07-25T17:49:33.400Z,35.20
2022-07-25T17:52:01.323Z,35.20
2022-07-25T17:54:29.228Z,35.10
2022-07-25T17:56:57.257Z,35.10
2022-07-25T17:59:25.214Z,35.00
2022-07-25T18:01:53.146Z,35.00
2022-07-25T18:04:21.426Z,34.90
2022-07-25T18:06:50.736Z,34.80
2022-07-25T18:09:20.271Z,34.80
2022-07-25T18:11:48.564Z,34.70
2022-07-25T18:14:16.828Z,34.70
2022-07-25T18:16:45.411Z,34.60
2022-07-25T18:19:13.537Z,34.60
2022-07-25T18:21:41.738Z,34.50
2022-07-25T18:26:40.304Z,34.40
2022-07-25T18:29:09.558Z,34.40
2022-07-25T18:31:37.917Z,34.30
2022-07-25T18:34:06.298Z,34.30
2022-07-25T18:36:35.197Z,34.20
2022-07-25T18:39:03.138Z,34.10
2022-07-25T18:41:32.996Z,34.10
2022-07-25T18:44:01.267Z,34.10
2022-07-25T18:46:30.248Z,34.10
2022-07-25T18:48:59.512Z,34.00
2022-07-25T18:51:27.462Z,33.90
2022-07-25T18:53:55.427Z,33.90
2022-07-25T18:56:23.341Z,33.90
2022-07-25T18:58:52.571Z,33.80
2022-07-25T19:01:20.545Z,33.80
2022-07-25T19:03:48.669Z,33.70
2022-07-25T19:06:17.531Z,33.70
2022-07-25T19:08:46.859Z,33.60
2022-07-25T19:11:15.242Z,33.60
2022-07-25T19:13:51.102Z,33.50
2022-07-25T19:16:21.171Z,33.40
2022-07-25T19:18:49.543Z,33.40
2022-07-25T19:21:17.752Z,33.30
2022-07-25T19:23:50.876Z,33.30
2022-07-25T19:26:19.764Z,33.20
2022-07-25T19:31:16.665Z,33.10
2022-07-25T19:33:46.626Z,33.10
2022-07-25T19:36:15.198Z,33.10
2022-07-25T19:38:43.105Z,33.00
2022-07-25T19:41:11.062Z,32.90
2022-07-25T19:43:39.021Z,32.90
2022-07-25T19:46:07.178Z,32.90
2022-07-25T19:48:35.234Z,32.80
2022-07-25T19:51:04.576Z,32.80
2022-07-25T19:53:32.974Z,32.70
2022-07-25T19:56:01.273Z,32.70
2022-07-25T19:58:29.417Z,32.60
2022-07-25T20:00:57.336Z,32.50
2022-07-25T20:03:25.236Z,32.40
2022-07-25T20:05:53.389Z,32.30
2022-07-25T20:08:22.645Z,32.30
2022-07-25T20:10:50.625Z,32.20
2022-07-25T20:13:18.532Z,32.10
2022-07-25T20:18:19.339Z,32.10
2022-07-25T20:20:47.958Z,32.00
2022-07-25T20:23:15.945Z,32.00
2022-07-25T20:25:45.277Z,31.90
2022-07-25T20:28:13.227Z,31.90
2022-07-25T20:30:41.351Z,31.90
2022-07-25T20:35:38.890Z,31.70
2022-07-25T20:38:09.761Z,31.30
2022-07-25T20:40:43.921Z,30.80
2022-07-25T20:43:17.670Z,30.60
2022-07-25T20:45:45.852Z,30.20
2022-07-25T20:48:15.539Z,29.90
2022-07-25T20:50:44.139Z,29.50
2022-07-25T20:53:12.105Z,29.30
2022-07-25T20:55:40.038Z,29.00
2022-07-25T20:58:08.176Z,28.80
2022-07-25T21:03:08.250Z,28.40
2022-07-25T21:05:37.560Z,28.20
2022-07-25T21:08:06.048Z,28.00
2022-07-25T21:10:34.302Z,27.80
2022-07-25T21:13:02.512Z,27.60
2022-07-25T21:15:31.602Z,27.40
2022-07-25T21:18:00.918Z,27.20
2022-07-25T21:20:29.089Z,27.10
2022-07-25T21:22:57.045Z,26.90
2022-07-25T21:25:24.953Z,26.80
2022-07-25T21:27:52.994Z,26.70
2022-07-25T21:30:21.031Z,26.70
2022-07-25T21:32:48.999Z,26.60
2022-07-25T21:35:19.074Z,26.50
2022-07-25T21:37:47.154Z,26.50
2022-07-25T21:40:15.389Z,26.50
2022-07-25T21:42:43.577Z,26.50
2022-07-25T21:45:12.462Z,26.50
2022-07-25T21:47:40.349Z,26.40
2022-07-25T21:50:26.950Z,26.30
2022-07-25T21:52:56.618Z,26.30
2022-07-25T21:55:24.645Z,26.30
2022-07-25T21:57:53.678Z,26.30
2022-07-25T22:00:22.298Z,26.30
2022-07-25T22:02:50.655Z,26.20
2022-07-25T22:05:19.382Z,26.20
2022-07-25T22:07:48.281Z,26.10
2022-07-25T22:10:19.879Z,26.10
2022-07-25T22:12:47.919Z,26.00
2022-07-25T22:15:16.182Z,26.00
2022-07-25T22:17:48.567Z,26.00
2022-07-25T22:20:17.688Z,25.90
2022-07-25T22:22:46.053Z,25.90
2022-07-25T22:25:14.105Z,25.80
2022-07-25T22:27:43.690Z,25.80
2022-07-25T22:30:18.034Z,25.70
2022-07-25T22:32:47.330Z,25.60
2022-07-25T22:35:15.282Z,25.50
2022-07-25T22:42:40.161Z,25.20
2022-07-25T22:45:10.611Z,25.20
2022-07-25T22:47:38.798Z,25.10
2022-07-25T22:50:08.163Z,25.10
2022-07-25T22:52:36.129Z,25.00
2022-07-25T22:55:04.316Z,25.00
2022-07-25T22:57:36.719Z,24.90
2022-07-25T23:00:08.358Z,24.90
2022-07-25T23:02:37.746Z,24.90
2022-07-25T23:05:06.731Z,24.90
2022-07-25T23:07:34.791Z,24.90
2022-07-25T23:10:02.871Z,24.90
2022-07-25T23:12:30.946Z,24.90
2022-07-25T23:14:58.865Z,24.90
2022-07-25T23:17:26.816Z,24.80
2022-07-25T23:19:57.205Z,24.80
2022-07-25T23:22:27.837Z,24.80
2022-07-25T23:24:56.260Z,24.80
2022-07-25T23:27:24.221Z,24.80
2022-07-25T23:29:52.703Z,24.80
2022-07-25T23:32:20.836Z,24.80
2022-07-25T23:34:48.748Z,24.80
2022-07-25T23:37:18.035Z,24.80
2022-07-25T23:39:45.952Z,24.80
2022-07-25T23:42:13.877Z,24.70
2022-07-25T23:44:44.462Z,24.80
2022-07-25T23:47:12.577Z,24.70
2022-07-25T23:49:41.244Z,24.70
2022-07-25T23:52:09.192Z,24.70
2022-07-25T23:54:40.540Z,24.60
2022-07-25T23:57:08.910Z,24.70
2022-07-25T23:59:37.158Z,24.70
